sensor_id;sensor_type;location;lat;lon;timestamp;pressure;altitude;pressure_sealevel;temperature;humidity
46379;BME280;32084;42.254;22.744;2023-03-24T00:00:40;95317.63;;;5.63;79.45
46379;BME280;32084;42.254;22.744;2023-03-24T00:03:06;95320.13;;;5.65;80.27
46379;BME280;32084;42.254;22.744;2023-03-24T00:05:33;95322.34;;;5.60;78.98
46379;BME280;32084;42.254;22.744;2023-03-24T00:07:59;95323.28;;;5.59;78.90
46379;BME280;32084;42.254;22.744;2023-03-24T00:10:27;95316.59;;;5.43;79.35
46379;BME280;32084;42.254;22.744;2023-03-24T00:12:55;95319.66;;;5.39;79.43
46379;BME280;32084;42.254;22.744;2023-03-24T00:15:23;95311.16;;;5.13;80.36
46379;BME280;32084;42.254;22.744;2023-03-24T00:17:50;95319.00;;;5.03;81.01
46379;BME280;32084;42.254;22.744;2023-03-24T00:20:17;95320.44;;;5.07;80.85
46379;BME280;32084;42.254;22.744;2023-03-24T00:22:44;95323.53;;;5.12;80.55
46379;BME280;32084;42.254;22.744;2023-03-24T00:25:15;95322.84;;;4.99;80.20
46379;BME280;32084;42.254;22.744;2023-03-24T00:27:41;95330.22;;;4.73;81.12
46379;BME280;32084;42.254;22.744;2023-03-24T00:30:10;95325.38;;;4.78;82.01
46379;BME280;32084;42.254;22.744;2023-03-24T00:32:37;95330.34;;;4.94;80.87
46379;BME280;32084;42.254;22.744;2023-03-24T00:35:04;95325.38;;;5.00;80.46
46379;BME280;32084;42.254;22.744;2023-03-24T00:37:31;95312.75;;;4.81;81.17
46379;BME280;32084;42.254;22.744;2023-03-24T00:39:57;95315.66;;;4.56;81.89
46379;BME280;32084;42.254;22.744;2023-03-24T00:42:24;95318.53;;;4.53;82.36
46379;BME280;32084;42.254;22.744;2023-03-24T00:44:50;95310.59;;;4.64;81.65
46379;BME280;32084;42.254;22.744;2023-03-24T00:47:18;95310.97;;;4.59;82.18
46379;BME280;32084;42.254;22.744;2023-03-24T00:49:51;95309.75;;;4.52;82.39
46379;BME280;32084;42.254;22.744;2023-03-24T00:52:19;95304.91;;;4.68;82.08
46379;BME280;32084;42.254;22.744;2023-03-24T00:54:46;95309.03;;;4.95;81.33
46379;BME280;32084;42.254;22.744;2023-03-24T00:57:13;95301.53;;;4.78;80.99
46379;BME280;32084;42.254;22.744;2023-03-24T00:59:47;95302.03;;;4.83;81.91
46379;BME280;32084;42.254;22.744;2023-03-24T01:02:14;95297.22;;;4.88;81.45
46379;BME280;32084;42.254;22.744;2023-03-24T01:04:40;95303.56;;;4.97;81.14
46379;BME280;32084;42.254;22.744;2023-03-24T01:07:06;95302.97;;;4.93;80.23
46379;BME280;32084;42.254;22.744;2023-03-24T01:09:36;95294.00;;;4.62;81.27
46379;BME280;32084;42.254;22.744;2023-03-24T01:12:02;95296.41;;;4.42;82.45
46379;BME280;32084;42.254;22.744;2023-03-24T01:14:29;95293.03;;;4.40;82.53
46379;BME280;32084;42.254;22.744;2023-03-24T01:16:56;95300.09;;;4.28;83.06
46379;BME280;32084;42.254;22.744;2023-03-24T01:19:22;95296.50;;;4.29;83.69
46379;BME280;32084;42.254;22.744;2023-03-24T01:21:50;95295.53;;;4.53;83.46
46379;BME280;32084;42.254;22.744;2023-03-24T01:24:21;95296.88;;;4.70;82.33
46379;BME280;32084;42.254;22.744;2023-03-24T01:26:50;95296.13;;;4.91;81.94
46379;BME280;32084;42.254;22.744;2023-03-24T01:29:17;95295.63;;;4.97;81.43
46379;BME280;32084;42.254;22.744;2023-03-24T01:31:43;95293.47;;;4.91;79.71
46379;BME280;32084;42.254;22.744;2023-03-24T01:34:09;95296.41;;;4.31;81.34
46379;BME280;32084;42.254;22.744;2023-03-24T01:36:35;95294.69;;;4.19;82.90
46379;BME280;32084;42.254;22.744;2023-03-24T01:39:01;95295.44;;;4.43;83.22
46379;BME280;32084;42.254;22.744;2023-03-24T01:41:33;95293.50;;;4.57;82.02
46379;BME280;32084;42.254;22.744;2023-03-24T01:43:59;95299.16;;;4.41;80.99
46379;BME280;32084;42.254;22.744;2023-03-24T01:46:25;95298.03;;;4.09;81.95
46379;BME280;32084;42.254;22.744;2023-03-24T01:53:50;95289.75;;;4.14;83.63
46379;BME280;32084;42.254;22.744;2023-03-24T01:56:17;95295.78;;;4.27;83.17
46379;BME280;32084;42.254;22.744;2023-03-24T01:58:45;95297.81;;;4.13;83.70
46379;BME280;32084;42.254;22.744;2023-03-24T02:01:12;95304.31;;;4.20;83.27
46379;BME280;32084;42.254;22.744;2023-03-24T02:03:39;95295.16;;;4.01;83.48
46379;BME280;32084;42.254;22.744;2023-03-24T02:06:06;95302.88;;;4.04;83.61
46379;BME280;32084;42.254;22.744;2023-03-24T02:08:36;95299.50;;;4.25;83.00
46379;BME280;32084;42.254;22.744;2023-03-24T02:11:03;95302.75;;;4.28;82.42
46379;BME280;32084;42.254;22.744;2023-03-24T02:13:30;95300.06;;;4.06;82.87
46379;BME280;32084;42.254;22.744;2023-03-24T02:19:36;95309.56;;;3.97;82.55
46379;BME280;32084;42.254;22.744;2023-03-24T02:39:57;95301.59;;;3.50;85.39
46379;BME280;32084;42.254;22.744;2023-03-24T02:45:26;95302.19;;;3.78;84.27
46379;BME280;32084;42.254;22.744;2023-03-24T02:48:15;95304.50;;;3.94;83.88
46379;BME280;32084;42.254;22.744;2023-03-24T02:53:14;95313.91;;;4.09;83.06
46379;BME280;32084;42.254;22.744;2023-03-24T02:55:45;95305.97;;;4.09;82.38
46379;BME280;32084;42.254;22.744;2023-03-24T02:58:22;95301.88;;;4.05;83.14
46379;BME280;32084;42.254;22.744;2023-03-24T03:01:04;95294.63;;;3.85;82.30
46379;BME280;32084;42.254;22.744;2023-03-24T03:03:35;95280.81;;;3.46;83.77
46379;BME280;32084;42.254;22.744;2023-03-24T03:08:29;95290.00;;;3.29;85.88
46379;BME280;32084;42.254;22.744;2023-03-24T03:10:58;95287.34;;;3.53;85.92
46379;BME280;32084;42.254;22.744;2023-03-24T03:13:30;95285.63;;;3.87;84.68
46379;BME280;32084;42.254;22.744;2023-03-24T03:15:58;95291.91;;;4.09;84.11
46379;BME280;32084;42.254;22.744;2023-03-24T03:18:30;95289.38;;;4.07;83.64
46379;BME280;32084;42.254;22.744;2023-03-24T03:21:00;95274.94;;;4.11;83.02
46379;BME280;32084;42.254;22.744;2023-03-24T03:23:31;95270.00;;;3.96;82.93
46379;BME280;32084;42.254;22.744;2023-03-24T03:25:59;95272.56;;;3.62;84.59
46379;BME280;32084;42.254;22.744;2023-03-24T03:28:29;95274.34;;;3.50;85.73
46379;BME280;32084;42.254;22.744;2023-03-24T03:30:58;95275.59;;;3.68;85.18
46379;BME280;32084;42.254;22.744;2023-03-24T03:33:30;95282.28;;;3.97;84.90
46379;BME280;32084;42.254;22.744;2023-03-24T03:40:59;95285.53;;;4.11;84.95
46379;BME280;32084;42.254;22.744;2023-03-24T03:43:27;95288.44;;;4.20;84.67
46379;BME280;32084;42.254;22.744;2023-03-24T03:45:55;95288.34;;;4.33;84.03
46379;BME280;32084;42.254;22.744;2023-03-24T03:48:21;95298.06;;;4.21;84.13
46379;BME280;32084;42.254;22.744;2023-03-24T03:50:51;95297.59;;;4.16;83.64
46379;BME280;32084;42.254;22.744;2023-03-24T03:53:18;95292.63;;;4.00;83.47
46379;BME280;32084;42.254;22.744;2023-03-24T03:55:45;95295.16;;;4.01;84.22
46379;BME280;32084;42.254;22.744;2023-03-24T03:58:12;95298.63;;;4.02;84.22
46379;BME280;32084;42.254;22.744;2023-03-24T04:00:38;95298.47;;;3.81;85.01
46379;BME280;32084;42.254;22.744;2023-03-24T04:08:52;95303.72;;;4.16;84.80
46379;BME280;32084;42.254;22.744;2023-03-24T04:11:29;95304.56;;;4.17;83.33
46379;BME280;32084;42.254;22.744;2023-03-24T04:20:07;95297.66;;;3.91;83.69
46379;BME280;32084;42.254;22.744;2023-03-24T04:24:53;95305.59;;;3.91;84.97
46379;BME280;32084;42.254;22.744;2023-03-24T04:27:33;95302.13;;;3.91;84.42
46379;BME280;32084;42.254;22.744;2023-03-24T04:30:15;95306.94;;;3.97;84.71
46379;BME280;32084;42.254;22.744;2023-03-24T04:35:36;95311.03;;;4.01;83.78
46379;BME280;32084;42.254;22.744;2023-03-24T04:38:09;95312.91;;;3.88;84.03
46379;BME280;32084;42.254;22.744;2023-03-24T04:40:38;95324.13;;;4.03;83.74
46379;BME280;32084;42.254;22.744;2023-03-24T04:43:07;95322.84;;;4.08;84.22
46379;BME280;32084;42.254;22.744;2023-03-24T04:45:34;95318.03;;;4.02;83.14
46379;BME280;32084;42.254;22.744;2023-03-24T04:48:01;95323.16;;;4.04;82.91
46379;BME280;32084;42.254;22.744;2023-03-24T04:50:38;95325.72;;;4.17;82.78
46379;BME280;32084;42.254;22.744;2023-03-24T04:53:05;95320.69;;;4.36;82.81
46379;BME280;32084;42.254;22.744;2023-03-24T04:58:16;95315.66;;;4.33;81.80
46379;BME280;32084;42.254;22.744;2023-03-24T05:00:43;95318.91;;;4.48;82.05
46379;BME280;32084;42.254;22.744;2023-03-24T05:03:10;95312.88;;;4.80;81.51
46379;BME280;32084;42.254;22.744;2023-03-24T05:05:42;95315.38;;;5.04;80.87
46379;BME280;32084;42.254;22.744;2023-03-24T05:08:09;95316.91;;;5.06;80.32
46379;BME280;32084;42.254;22.744;2023-03-24T05:10:36;95309.09;;;5.16;80.51
46379;BME280;32084;42.254;22.744;2023-03-24T05:13:02;95314.75;;;5.55;79.81
46379;BME280;32084;42.254;22.744;2023-03-24T05:15:29;95320.22;;;5.75;79.10
46379;BME280;32084;42.254;22.744;2023-03-24T05:17:55;95326.75;;;6.03;78.52
46379;BME280;32084;42.254;22.744;2023-03-24T05:20:21;95332.44;;;5.98;77.73
46379;BME280;32084;42.254;22.744;2023-03-24T05:22:48;95338.72;;;5.86;78.69
46379;BME280;32084;42.254;22.744;2023-03-24T05:25:14;95339.78;;;5.95;79.33
46379;BME280;32084;42.254;22.744;2023-03-24T05:27:41;95337.75;;;5.98;79.28
46379;BME280;32084;42.254;22.744;2023-03-24T05:30:07;95345.72;;;5.87;78.39
46379;BME280;32084;42.254;22.744;2023-03-24T05:32:33;95337.44;;;5.80;79.71
46379;BME280;32084;42.254;22.744;2023-03-24T05:34:59;95343.72;;;6.12;79.87
46379;BME280;32084;42.254;22.744;2023-03-24T05:37:27;95344.75;;;6.41;77.83
46379;BME280;32084;42.254;22.744;2023-03-24T05:39:53;95340.28;;;6.73;77.44
46379;BME280;32084;42.254;22.744;2023-03-24T05:42:19;95338.38;;;6.84;77.28
46379;BME280;32084;42.254;22.744;2023-03-24T05:44:45;95349.50;;;6.99;77.24
46379;BME280;32084;42.254;22.744;2023-03-24T05:47:12;95350.13;;;7.22;76.80
46379;BME280;32084;42.254;22.744;2023-03-24T05:49:41;95351.59;;;7.56;75.37
46379;BME280;32084;42.254;22.744;2023-03-24T05:52:08;95347.56;;;7.81;74.54
46379;BME280;32084;42.254;22.744;2023-03-24T05:54:34;95349.13;;;7.93;73.38
46379;BME280;32084;42.254;22.744;2023-03-24T05:57:01;95356.84;;;8.16;73.17
46379;BME280;32084;42.254;22.744;2023-03-24T05:59:27;95352.16;;;8.57;73.67
46379;BME280;32084;42.254;22.744;2023-03-24T06:01:53;95345.63;;;8.89;71.24
46379;BME280;32084;42.254;22.744;2023-03-24T06:04:23;95347.91;;;9.11;69.63
46379;BME280;32084;42.254;22.744;2023-03-24T06:06:49;95342.47;;;9.03;71.17
46379;BME280;32084;42.254;22.744;2023-03-24T06:09:15;95344.84;;;9.06;70.47
46379;BME280;32084;42.254;22.744;2023-03-24T06:11:42;95348.09;;;9.55;68.55
46379;BME280;32084;42.254;22.744;2023-03-24T06:14:08;95346.50;;;9.45;68.01
46379;BME280;32084;42.254;22.744;2023-03-24T06:16:34;95344.59;;;9.73;67.41
46379;BME280;32084;42.254;22.744;2023-03-24T06:19:04;95344.47;;;10.28;66.70
46379;BME280;32084;42.254;22.744;2023-03-24T06:24:53;95346.84;;;10.31;65.14
46379;BME280;32084;42.254;22.744;2023-03-24T06:27:21;95349.50;;;10.49;66.65
46379;BME280;32084;42.254;22.744;2023-03-24T06:29:51;95356.75;;;10.83;64.24
46379;BME280;32084;42.254;22.744;2023-03-24T06:32:18;95360.19;;;10.75;63.54
46379;BME280;32084;42.254;22.744;2023-03-24T06:34:44;95356.91;;;11.08;63.37
46379;BME280;32084;42.254;22.744;2023-03-24T06:37:10;95355.94;;;11.17;63.82
46379;BME280;32084;42.254;22.744;2023-03-24T06:39:36;95361.59;;;11.48;62.33
46379;BME280;32084;42.254;22.744;2023-03-24T06:42:03;95344.34;;;12.02;62.25
46379;BME280;32084;42.254;22.744;2023-03-24T06:44:29;95356.41;;;11.89;59.84
46379;BME280;32084;42.254;22.744;2023-03-24T06:46:55;95359.28;;;12.70;59.17
46379;BME280;32084;42.254;22.744;2023-03-24T06:49:21;95359.94;;;12.80;58.23
46379;BME280;32084;42.254;22.744;2023-03-24T06:51:47;95355.09;;;12.92;57.33
46379;BME280;32084;42.254;22.744;2023-03-24T06:54:13;95365.09;;;13.06;56.33
46379;BME280;32084;42.254;22.744;2023-03-24T06:56:39;95359.03;;;13.21;57.35
46379;BME280;32084;42.254;22.744;2023-03-24T06:59:06;95361.41;;;13.07;58.24
46379;BME280;32084;42.254;22.744;2023-03-24T07:01:32;95361.84;;;13.44;56.26
46379;BME280;32084;42.254;22.744;2023-03-24T07:03:59;95372.69;;;13.59;55.11
46379;BME280;32084;42.254;22.744;2023-03-24T07:06:26;95367.34;;;13.51;56.34
46379;BME280;32084;42.254;22.744;2023-03-24T07:08:52;95358.09;;;13.93;54.05
46379;BME280;32084;42.254;22.744;2023-03-24T07:11:18;95361.63;;;13.93;54.24
46379;BME280;32084;42.254;22.744;2023-03-24T07:13:44;95360.47;;;14.42;53.94
46379;BME280;32084;42.254;22.744;2023-03-24T07:16:10;95360.94;;;14.69;53.01
46379;BME280;32084;42.254;22.744;2023-03-24T07:18:36;95358.00;;;14.32;53.00
46379;BME280;32084;42.254;22.744;2023-03-24T07:21:02;95353.72;;;14.23;53.97
46379;BME280;32084;42.254;22.744;2023-03-24T07:23:28;95357.41;;;14.45;54.37
46379;BME280;32084;42.254;22.744;2023-03-24T07:25:55;95359.34;;;14.51;53.36
46379;BME280;32084;42.254;22.744;2023-03-24T07:28:21;95357.22;;;14.23;53.96
46379;BME280;32084;42.254;22.744;2023-03-24T07:30:47;95358.25;;;14.45;54.33
46379;BME280;32084;42.254;22.744;2023-03-24T07:33:14;95356.09;;;14.41;52.73
46379;BME280;32084;42.254;22.744;2023-03-24T07:35:40;95362.56;;;14.78;53.98
46379;BME280;32084;42.254;22.744;2023-03-24T07:38:06;95361.31;;;15.18;53.15
46379;BME280;32084;42.254;22.744;2023-03-24T07:40:32;95358.25;;;15.36;52.32
46379;BME280;32084;42.254;22.744;2023-03-24T07:43:00;95362.06;;;15.42;50.79
46379;BME280;32084;42.254;22.744;2023-03-24T07:45:26;95358.81;;;15.47;50.93
46379;BME280;32084;42.254;22.744;2023-03-24T07:47:53;95354.25;;;15.47;52.48
46379;BME280;32084;42.254;22.744;2023-03-24T07:50:19;95349.56;;;16.00;51.70
46379;BME280;32084;42.254;22.744;2023-03-24T07:52:46;95354.25;;;15.92;51.67
46379;BME280;32084;42.254;22.744;2023-03-24T07:55:13;95359.25;;;15.80;50.72
46379;BME280;32084;42.254;22.744;2023-03-24T07:57:41;95353.28;;;15.99;51.07
46379;BME280;32084;42.254;22.744;2023-03-24T08:00:08;95355.38;;;16.19;50.03
46379;BME280;32084;42.254;22.744;2023-03-24T08:02:40;95350.78;;;15.98;50.85
46379;BME280;32084;42.254;22.744;2023-03-24T08:05:07;95348.75;;;16.22;49.66
46379;BME280;32084;42.254;22.744;2023-03-24T08:07:35;95344.44;;;16.27;49.29
46379;BME280;32084;42.254;22.744;2023-03-24T08:10:01;95342.78;;;16.26;50.78
46379;BME280;32084;42.254;22.744;2023-03-24T08:12:28;95346.50;;;16.68;49.42
46379;BME280;32084;42.254;22.744;2023-03-24T08:14:54;95346.13;;;16.93;47.42
46379;BME280;32084;42.254;22.744;2023-03-24T08:17:20;95344.00;;;16.67;47.11
46379;BME280;32084;42.254;22.744;2023-03-24T08:19:46;95343.28;;;17.01;48.21
46379;BME280;32084;42.254;22.744;2023-03-24T08:22:13;95341.94;;;17.18;47.25
46379;BME280;32084;42.254;22.744;2023-03-24T08:24:39;95327.41;;;17.20;48.19
46379;BME280;32084;42.254;22.744;2023-03-24T08:27:05;95322.34;;;17.38;48.09
46379;BME280;32084;42.254;22.744;2023-03-24T08:29:35;95332.47;;;17.71;46.76
46379;BME280;32084;42.254;22.744;2023-03-24T08:32:01;95330.22;;;17.81;44.44
46379;BME280;32084;42.254;22.744;2023-03-24T08:34:27;95322.47;;;18.13;44.80
46379;BME280;32084;42.254;22.744;2023-03-24T08:36:53;95317.66;;;18.15;44.03
46379;BME280;32084;42.254;22.744;2023-03-24T08:39:19;95319.34;;;18.23;45.01
46379;BME280;32084;42.254;22.744;2023-03-24T08:41:45;95321.16;;;17.95;44.43
46379;BME280;32084;42.254;22.744;2023-03-24T08:44:11;95317.88;;;18.13;45.11
46379;BME280;32084;42.254;22.744;2023-03-24T08:46:38;95316.72;;;18.69;45.18
46379;BME280;32084;42.254;22.744;2023-03-24T08:49:04;95323.44;;;19.07;43.75
46379;BME280;32084;42.254;22.744;2023-03-24T08:51:31;95317.19;;;18.86;43.29
46379;BME280;32084;42.254;22.744;2023-03-24T08:53:57;95303.41;;;18.61;44.77
46379;BME280;32084;42.254;22.744;2023-03-24T08:56:23;95304.44;;;18.53;43.15
46379;BME280;32084;42.254;22.744;2023-03-24T08:58:50;95308.19;;;19.06;43.08
46379;BME280;32084;42.254;22.744;2023-03-24T09:01:21;95308.97;;;19.46;41.89
46379;BME280;32084;42.254;22.744;2023-03-24T09:03:47;95305.38;;;19.59;41.45
46379;BME280;32084;42.254;22.744;2023-03-24T09:06:14;95302.00;;;19.70;44.11
46379;BME280;32084;42.254;22.744;2023-03-24T09:08:40;95292.81;;;19.85;43.23
46379;BME280;32084;42.254;22.744;2023-03-24T09:11:11;95292.72;;;19.98;43.09
46379;BME280;32084;42.254;22.744;2023-03-24T09:13:38;95289.34;;;20.03;43.35
46379;BME280;32084;42.254;22.744;2023-03-24T09:16:04;95286.50;;;19.98;44.28
46379;BME280;32084;42.254;22.744;2023-03-24T09:18:30;95287.38;;;20.23;42.69
46379;BME280;32084;42.254;22.744;2023-03-24T09:20:56;95274.63;;;20.24;43.50
46379;BME280;32084;42.254;22.744;2023-03-24T09:23:22;95289.03;;;20.56;42.32
46379;BME280;32084;42.254;22.744;2023-03-24T09:25:49;95286.75;;;19.83;41.07
46379;BME280;32084;42.254;22.744;2023-03-24T09:28:16;95279.09;;;19.60;43.41
46379;BME280;32084;42.254;22.744;2023-03-24T09:30:42;95268.94;;;20.00;44.45
46379;BME280;32084;42.254;22.744;2023-03-24T09:33:08;95276.53;;;20.48;42.88
46379;BME280;32084;42.254;22.744;2023-03-24T09:35:34;95273.59;;;20.57;43.72
46379;BME280;32084;42.254;22.744;2023-03-24T09:38:00;95264.28;;;20.39;42.00
46379;BME280;32084;42.254;22.744;2023-03-24T09:40:28;95259.59;;;20.28;42.81
46379;BME280;32084;42.254;22.744;2023-03-24T09:42:56;95256.31;;;20.44;43.26
46379;BME280;32084;42.254;22.744;2023-03-24T09:45:25;95255.09;;;20.72;43.03
46379;BME280;32084;42.254;22.744;2023-03-24T09:47:53;95255.50;;;20.76;42.60
46379;BME280;32084;42.254;22.744;2023-03-24T09:50:38;95248.81;;;20.97;40.82
46379;BME280;32084;42.254;22.744;2023-03-24T09:53:19;95248.13;;;21.01;41.52
46379;BME280;32084;42.254;22.744;2023-03-24T09:55:49;95251.72;;;20.77;40.27
46379;BME280;32084;42.254;22.744;2023-03-24T09:58:16;95241.22;;;20.55;42.11
46379;BME280;32084;42.254;22.744;2023-03-24T10:00:43;95232.06;;;20.75;42.54
46379;BME280;32084;42.254;22.744;2023-03-24T10:03:13;95224.53;;;21.02;42.64
46379;BME280;32084;42.254;22.744;2023-03-24T10:05:50;95226.66;;;21.37;41.14
46379;BME280;32084;42.254;22.744;2023-03-24T10:18:58;95210.63;;;21.66;40.52
46379;BME280;32084;42.254;22.744;2023-03-24T10:21:27;95208.72;;;22.15;40.08
46379;BME280;32084;42.254;22.744;2023-03-24T10:24:40;95209.59;;;21.97;38.18
46379;BME280;32084;42.254;22.744;2023-03-24T10:31:42;95204.59;;;21.63;36.20
46379;BME280;32084;42.254;22.744;2023-03-24T10:34:12;95195.81;;;21.80;39.02
46379;BME280;32084;42.254;22.744;2023-03-24T10:36:38;95201.56;;;21.72;36.17
46379;BME280;32084;42.254;22.744;2023-03-24T10:39:07;95192.13;;;21.56;38.58
46379;BME280;32084;42.254;22.744;2023-03-24T10:41:34;95183.63;;;21.82;39.11
46379;BME280;32084;42.254;22.744;2023-03-24T10:44:01;95177.38;;;21.82;39.07
46379;BME280;32084;42.254;22.744;2023-03-24T10:46:29;95178.75;;;21.73;37.12
46379;BME280;32084;42.254;22.744;2023-03-24T10:49:06;95181.25;;;21.74;35.32
46379;BME280;32084;42.254;22.744;2023-03-24T10:51:33;95177.38;;;21.82;37.01
46379;BME280;32084;42.254;22.744;2023-03-24T10:56:42;95170.53;;;21.91;35.00
46379;BME280;32084;42.254;22.744;2023-03-24T11:01:45;95172.91;;;21.69;32.94
46379;BME280;32084;42.254;22.744;2023-03-24T11:04:13;95160.91;;;21.58;35.37
46379;BME280;32084;42.254;22.744;2023-03-24T11:06:51;95150.41;;;21.62;35.83
46379;BME280;32084;42.254;22.744;2023-03-24T11:09:20;95145.75;;;21.81;36.44
46379;BME280;32084;42.254;22.744;2023-03-24T11:11:47;95145.53;;;21.82;35.37
46379;BME280;32084;42.254;22.744;2023-03-24T11:14:18;95145.94;;;21.68;33.20
46379;BME280;32084;42.254;22.744;2023-03-24T11:16:47;95135.22;;;21.84;35.83
46379;BME280;32084;42.254;22.744;2023-03-24T11:19:17;95129.03;;;22.08;37.16
46379;BME280;32084;42.254;22.744;2023-03-24T11:21:44;95121.44;;;22.10;36.31
46379;BME280;32084;42.254;22.744;2023-03-24T11:24:11;95128.56;;;22.11;35.47
46379;BME280;32084;42.254;22.744;2023-03-24T11:26:43;95131.84;;;22.01;33.28
46379;BME280;32084;42.254;22.744;2023-03-24T11:29:20;95136.03;;;21.73;30.05
46379;BME280;32084;42.254;22.744;2023-03-24T11:32:02;95132.63;;;21.48;31.45
46379;BME280;32084;42.254;22.744;2023-03-24T11:34:31;95114.19;;;21.50;32.03
46379;BME280;32084;42.254;22.744;2023-03-24T11:37:06;95108.81;;;21.73;34.41
46379;BME280;32084;42.254;22.744;2023-03-24T11:39:36;95095.97;;;21.92;35.84
46379;BME280;32084;42.254;22.744;2023-03-24T11:49:43;95097.72;;;21.75;30.86
46379;BME280;32084;42.254;22.744;2023-03-24T11:52:55;95095.22;;;21.85;28.12
46379;BME280;32084;42.254;22.744;2023-03-24T11:55:02;95095.84;;;21.57;28.18
46379;BME280;32084;42.254;22.744;2023-03-24T12:00:52;95074.66;;;21.89;31.02
46379;BME280;32084;42.254;22.744;2023-03-24T12:05:38;95072.34;;;22.16;30.16
46379;BME280;32084;42.254;22.744;2023-03-24T12:13:37;95058.94;;;22.03;32.02
46379;BME280;32084;42.254;22.744;2023-03-24T12:16:10;95062.47;;;21.80;30.66
46379;BME280;32084;42.254;22.744;2023-03-24T12:24:04;95030.56;;;22.11;31.67
46379;BME280;32084;42.254;22.744;2023-03-24T12:26:36;95027.81;;;22.11;31.79
46379;BME280;32084;42.254;22.744;2023-03-24T12:39:27;95014.44;;;22.09;31.77
46379;BME280;32084;42.254;22.744;2023-03-24T12:51:51;95008.38;;;21.72;29.59
46379;BME280;32084;42.254;22.744;2023-03-24T12:57:08;94990.78;;;21.86;29.95
46379;BME280;32084;42.254;22.744;2023-03-24T12:59:43;94990.16;;;21.72;29.61
46379;BME280;32084;42.254;22.744;2023-03-24T13:02:24;94989.56;;;21.70;30.83
46379;BME280;32084;42.254;22.744;2023-03-24T13:04:53;94980.94;;;21.85;31.02
46379;BME280;32084;42.254;22.744;2023-03-24T13:07:21;94974.06;;;21.94;31.20
46379;BME280;32084;42.254;22.744;2023-03-24T13:12:37;94971.94;;;22.08;28.04
46379;BME280;32084;42.254;22.744;2023-03-24T13:20:19;94968.41;;;22.31;28.88
46379;BME280;32084;42.254;22.744;2023-03-24T13:22:47;94967.78;;;22.17;28.23
46379;BME280;32084;42.254;22.744;2023-03-24T13:25:36;94967.09;;;21.98;28.63
46379;BME280;32084;42.254;22.744;2023-03-24T13:27:59;94944.00;;;22.25;31.48
46379;BME280;32084;42.254;22.744;2023-03-24T13:30:39;94945.56;;;22.32;29.23
46379;BME280;32084;42.254;22.744;2023-03-24T13:38:50;94947.66;;;22.42;27.58
46379;BME280;32084;42.254;22.744;2023-03-24T13:41:19;94950.28;;;22.37;27.50
46379;BME280;32084;42.254;22.744;2023-03-24T13:43:46;94949.34;;;22.31;28.34
46379;BME280;32084;42.254;22.744;2023-03-24T13:46:14;94934.41;;;22.22;28.82
46379;BME280;32084;42.254;22.744;2023-03-24T13:48:41;94937.53;;;22.26;27.96
46379;BME280;32084;42.254;22.744;2023-03-24T14:09:22;94926.50;;;22.32;27.18
46379;BME280;32084;42.254;22.744;2023-03-24T14:12:06;94924.00;;;22.19;27.56
46379;BME280;32084;42.254;22.744;2023-03-24T14:14:33;94921.53;;;22.29;27.26
46379;BME280;32084;42.254;22.744;2023-03-24T14:17:14;94908.72;;;22.41;28.17
46379;BME280;32084;42.254;22.744;2023-03-24T14:19:41;94913.00;;;22.37;28.63
46379;BME280;32084;42.254;22.744;2023-03-24T14:24:34;94907.44;;;22.32;28.41
46379;BME280;32084;42.254;22.744;2023-03-24T14:27:19;94909.22;;;22.27;28.44
46379;BME280;32084;42.254;22.744;2023-03-24T14:29:47;94896.78;;;22.19;28.52
46379;BME280;32084;42.254;22.744;2023-03-24T14:32:16;94895.94;;;22.18;29.01
46379;BME280;32084;42.254;22.744;2023-03-24T14:34:51;94897.84;;;22.18;29.40
46379;BME280;32084;42.254;22.744;2023-03-24T14:37:19;94904.22;;;22.12;29.31
46379;BME280;32084;42.254;22.744;2023-03-24T14:39:46;94898.78;;;22.12;29.36
46379;BME280;32084;42.254;22.744;2023-03-24T14:45:02;94900.56;;;22.18;29.18
46379;BME280;32084;42.254;22.744;2023-03-24T14:47:32;94895.84;;;22.25;29.38
46379;BME280;32084;42.254;22.744;2023-03-24T14:49:59;94897.63;;;22.31;29.30
46379;BME280;32084;42.254;22.744;2023-03-24T14:52:27;94884.34;;;22.11;29.12
46379;BME280;32084;42.254;22.744;2023-03-24T14:57:23;94877.44;;;21.80;29.91
46379;BME280;32084;42.254;22.744;2023-03-24T15:07:37;94873.50;;;21.64;31.06
46379;BME280;32084;42.254;22.744;2023-03-24T15:10:03;94872.22;;;21.55;31.32
46379;BME280;32084;42.254;22.744;2023-03-24T15:12:29;94865.22;;;21.47;32.13
46379;BME280;32084;42.254;22.744;2023-03-24T15:14:55;94862.63;;;21.40;32.75
46379;BME280;32084;42.254;22.744;2023-03-24T15:17:22;94863.31;;;21.36;33.08
46379;BME280;32084;42.254;22.744;2023-03-24T15:19:52;94862.38;;;21.42;32.47
46379;BME280;32084;42.254;22.744;2023-03-24T15:22:18;94863.09;;;21.49;32.47
46379;BME280;32084;42.254;22.744;2023-03-24T15:24:45;94856.25;;;21.58;33.65
46379;BME280;32084;42.254;22.744;2023-03-24T15:27:20;94860.63;;;21.59;33.44
46379;BME280;32084;42.254;22.744;2023-03-24T15:29:48;94848.81;;;21.54;34.37
46379;BME280;32084;42.254;22.744;2023-03-24T15:32:18;94852.13;;;21.56;34.40
46379;BME280;32084;42.254;22.744;2023-03-24T15:34:46;94848.81;;;21.54;34.69
46379;BME280;32084;42.254;22.744;2023-03-24T15:37:33;94843.72;;;21.57;35.48
46379;BME280;32084;42.254;22.744;2023-03-24T15:39:59;94844.66;;;21.51;34.60
46379;BME280;32084;42.254;22.744;2023-03-24T15:42:26;94841.34;;;21.49;35.04
46379;BME280;32084;42.254;22.744;2023-03-24T15:44:52;94844.19;;;21.54;35.42
46379;BME280;32084;42.254;22.744;2023-03-24T15:47:20;94840.16;;;21.45;34.50
46379;BME280;32084;42.254;22.744;2023-03-24T15:50:04;94836.38;;;21.34;34.58
46379;BME280;32084;42.254;22.744;2023-03-24T15:52:33;94840.97;;;21.34;35.17
46379;BME280;32084;42.254;22.744;2023-03-24T15:55:01;94844.50;;;21.22;34.83
46379;BME280;32084;42.254;22.744;2023-03-24T15:57:27;94845.09;;;21.24;35.19
46379;BME280;32084;42.254;22.744;2023-03-24T16:02:29;94839.19;;;21.16;35.46